Time;durP1;ratioP1;P1;durP2;ratioP2;P2;SDS_P1;SDS_P2;PMS_P1;PMS_P2;Temp;Humidity;BMP_temperature;BMP_pressure;BME280_temperature;BME280_humidity;BME280_pressure;Samples;Min_cycle;Max_cycle;Signal;HPM_P1;HPM_P2
2022/10/26 00:00:06;;;;;;;6.97;4.75;;;12.50;99.90;;;;;;5077216;28;20024;-40
2022/10/26 00:02:34;;;;;;;6.93;5.05;;;12.50;99.90;;;;;;5080814;28;20017;-40
2022/10/26 00:05:00;;;;;;;7.60;5.22;;;12.50;99.90;;;;;;5064309;28;20024;-37
2022/10/26 00:07:28;;;;;;;7.82;5.15;;;12.50;99.90;;;;;;5064492;28;20818;-40
2022/10/26 00:09:54;;;;;;;7.10;4.35;;;12.50;99.90;;;;;;5075478;28;20131;-37
2022/10/26 00:12:20;;;;;;;8.90;5.45;;;12.50;99.90;;;;;;5064881;28;20031;-39
2022/10/26 00:14:45;;;;;;;7.45;5.85;;;12.50;99.90;;;;;;5074784;28;20025;-39
2022/10/26 00:17:11;;;;;;;7.05;5.20;;;12.50;99.90;;;;;;5063236;28;20038;-40
2022/10/26 00:19:37;;;;;;;6.78;5.18;;;12.50;99.90;;;;;;5070936;28;20471;-37
2022/10/26 00:22:05;;;;;;;7.50;5.45;;;12.50;99.90;;;;;;5084962;28;20039;-40
2022/10/26 00:24:31;;;;;;;7.45;5.47;;;12.50;99.90;;;;;;5071074;28;20032;-40
2022/10/26 00:26:56;;;;;;;8.00;5.40;;;12.50;99.90;;;;;;5082713;28;20031;-40
2022/10/26 00:29:21;;;;;;;8.15;5.55;;;12.50;99.90;;;;;;5071957;28;20025;-40
2022/10/26 00:31:50;;;;;;;7.55;5.45;;;12.50;99.90;;;;;;5080799;28;20438;-39
2022/10/26 00:34:15;;;;;;;6.22;5.20;;;12.40;99.90;;;;;;5074246;28;20086;-40
2022/10/26 00:36:41;;;;;;;7.28;5.40;;;12.50;99.90;;;;;;5080302;28;20024;-40
2022/10/26 00:39:06;;;;;;;7.22;5.45;;;12.50;99.90;;;;;;5076992;28;20040;-38
2022/10/26 00:41:34;;;;;;;7.13;5.18;;;12.50;99.90;;;;;;5077124;28;20554;-38
2022/10/26 00:44:00;;;;;;;6.80;5.07;;;12.50;99.90;;;;;;5080386;28;20024;-40
2022/10/26 00:46:29;;;;;;;7.20;5.70;;;12.50;99.90;;;;;;5074408;28;20820;-39
2022/10/26 00:48:57;;;;;;;7.32;5.10;;;12.50;99.90;;;;;;5081809;28;20028;-38
2022/10/26 00:51:37;;;;;;;7.65;5.53;;;12.40;99.90;;;;;;5072918;28;20020;-39
2022/10/26 00:54:11;;;;;;;8.40;5.45;;;12.50;99.90;;;;;;5081744;28;20123;-38
2022/10/26 00:56:37;;;;;;;6.70;4.85;;;12.50;99.90;;;;;;5074127;28;20035;-39
2022/10/26 00:59:06;;;;;;;8.65;5.75;;;12.50;99.90;;;;;;5081788;28;20032;-39
2022/10/26 01:01:34;;;;;;;5.50;4.55;;;12.50;99.90;;;;;;5072866;28;20016;-39
2022/10/26 01:04:00;;;;;;;9.93;5.25;;;12.50;99.90;;;;;;5065367;28;20029;-39
2022/10/26 01:06:30;;;;;;;7.03;5.40;;;12.50;99.90;;;;;;5074109;28;20392;-39
2022/10/26 01:08:55;;;;;;;7.90;5.10;;;12.60;99.90;;;;;;5062205;28;20032;-38
2022/10/26 01:11:21;;;;;;;7.60;5.68;;;12.60;99.90;;;;;;5075295;28;20027;-39
2022/10/26 01:13:49;;;;;;;9.60;5.47;;;12.60;99.90;;;;;;5063391;28;20017;-39
2022/10/26 01:16:43;;;;;;;8.15;5.43;;;12.60;99.90;;;;;;5074350;28;20032;-40
2022/10/26 01:19:50;;;;;;;8.02;5.40;;;12.60;99.90;;;;;;5062846;28;20040;-37
2022/10/26 01:22:28;;;;;;;7.03;5.63;;;12.60;99.90;;;;;;5073208;28;20044;-40
2022/10/26 01:25:16;;;;;;;6.68;5.03;;;12.60;99.90;;;;;;5064728;28;20020;-39
2022/10/26 01:27:45;;;;;;;7.57;5.25;;;12.60;99.90;;;;;;5073100;28;20016;-40
2022/10/26 01:30:10;;;;;;;7.65;5.65;;;12.60;99.90;;;;;;5080616;28;20108;-39
2022/10/26 01:32:58;;;;;;;8.55;5.20;;;12.60;99.90;;;;;;5071860;28;20533;-39
2022/10/26 01:35:52;;;;;;;6.65;4.90;;;12.60;99.90;;;;;;5079495;28;20512;-41
2022/10/26 01:38:52;;;;;;;6.72;4.93;;;12.60;99.90;;;;;;5073784;28;20507;-41
2022/10/26 01:41:32;;;;;;;9.30;5.18;;;12.70;99.90;;;;;;5074441;28;20031;-39
2022/10/26 01:44:05;;;;;;;7.53;5.00;;;12.60;99.90;;;;;;5078411;28;20058;-40
2022/10/26 01:46:36;;;;;;;8.70;5.55;;;12.70;99.90;;;;;;5075539;28;20103;-39
2022/10/26 01:49:10;;;;;;;8.50;5.20;;;12.70;99.90;;;;;;5077969;28;20094;-38
2022/10/26 01:51:40;;;;;;;7.40;4.65;;;12.60;99.90;;;;;;5075617;28;20102;-37
2022/10/26 01:54:06;;;;;;;6.45;4.63;;;12.60;99.90;;;;;;5078021;28;20059;-39
2022/10/26 01:56:37;;;;;;;7.32;4.70;;;12.60;99.90;;;;;;5076843;28;20107;-39
2022/10/26 01:59:21;;;;;;;8.32;4.57;;;12.60;99.90;;;;;;5075764;28;20082;-37
2022/10/26 02:01:47;;;;;;;6.38;4.10;;;12.60;99.90;;;;;;5077327;28;20044;-38
2022/10/26 02:04:40;;;;;;;6.07;4.05;;;12.60;99.90;;;;;;5068815;28;20526;-39
2022/10/26 02:07:12;;;;;;;5.30;4.20;;;12.50;99.90;;;;;;5069221;28;20024;-40
2022/10/26 02:09:55;;;;;;;6.73;4.20;;;12.50;99.90;;;;;;5068668;28;20028;-39
2022/10/26 02:12:37;;;;;;;8.05;4.25;;;12.50;99.90;;;;;;5071533;28;20036;-39
2022/10/26 02:15:12;;;;;;;6.22;4.50;;;12.40;99.90;;;;;;5070561;28;20041;-40
2022/10/26 02:17:46;;;;;;;9.02;4.50;;;12.50;99.90;;;;;;5073301;28;20040;-40
2022/10/26 02:20:20;;;;;;;6.68;4.07;;;12.40;99.90;;;;;;5070035;28;20028;-40
2022/10/26 02:22:49;;;;;;;8.32;4.53;;;12.40;99.90;;;;;;5074102;28;20433;-40
2022/10/26 02:25:28;;;;;;;6.93;4.10;;;12.50;99.90;;;;;;5069638;28;20825;-41
2022/10/26 02:27:59;;;;;;;7.13;4.15;;;12.50;99.90;;;;;;5073861;28;20036;-38
2022/10/26 02:30:25;;;;;;;7.95;4.53;;;12.50;99.90;;;;;;5070887;28;20037;-40
2022/10/26 02:32:53;;;;;;;7.47;4.68;;;12.50;99.90;;;;;;5070967;28;20403;-38
2022/10/26 02:35:24;;;;;;;6.35;4.25;;;12.60;99.90;;;;;;5073022;28;20028;-39
2022/10/26 02:37:51;;;;;;;6.97;4.68;;;12.60;99.90;;;;;;5070469;28;20099;-40
2022/10/26 02:40:21;;;;;;;7.18;4.45;;;12.60;99.90;;;;;;5073176;28;20467;-40
2022/10/26 02:42:48;;;;;;;7.85;5.80;;;12.60;99.90;;;;;;5067338;28;20020;-40
2022/10/26 02:45:20;;;;;;;7.45;4.70;;;12.60;99.90;;;;;;5074981;28;20057;-41
2022/10/26 02:47:45;;;;;;;8.50;4.72;;;12.60;99.90;;;;;;5065929;28;20031;-40
2022/10/26 02:50:11;;;;;;;7.28;4.70;;;12.60;99.90;;;;;;5075761;28;20033;-40
2022/10/26 02:52:51;;;;;;;9.27;5.35;;;12.60;99.90;;;;;;5066255;28;20070;-41
2022/10/26 02:55:19;;;;;;;6.72;5.00;;;12.60;99.90;;;;;;5076390;28;20025;-37
2022/10/26 02:57:49;;;;;;;7.40;4.95;;;12.60;99.90;;;;;;5066337;28;20068;-39
2022/10/26 03:00:17;;;;;;;10.30;4.65;;;12.60;99.90;;;;;;5075850;28;20064;-36
2022/10/26 03:02:44;;;;;;;6.45;4.72;;;12.60;99.90;;;;;;5066181;28;20434;-37
2022/10/26 03:05:19;;;;;;;5.93;4.60;;;12.60;99.90;;;;;;5067547;28;20021;-36
2022/10/26 03:07:44;;;;;;;9.65;4.95;;;12.60;99.90;;;;;;5066102;28;20093;-40
2022/10/26 03:10:10;;;;;;;7.72;5.00;;;12.70;99.90;;;;;;5072279;28;20036;-35
2022/10/26 03:12:36;;;;;;;9.43;4.90;;;12.70;99.90;;;;;;5085930;28;20035;-40
2022/10/26 03:15:03;;;;;;;8.77;4.82;;;12.70;99.90;;;;;;5073236;28;20024;-39
2022/10/26 03:17:29;;;;;;;6.68;4.50;;;12.70;99.90;;;;;;5085074;28;20047;-39
2022/10/26 03:19:55;;;;;;;7.93;4.60;;;12.80;99.90;;;;;;5075771;28;20024;-39
2022/10/26 03:22:20;;;;;;;7.75;4.70;;;12.70;99.90;;;;;;5081076;28;20476;-39
2022/10/26 03:24:46;;;;;;;7.03;4.40;;;12.70;99.90;;;;;;5078590;28;20122;-39
2022/10/26 03:27:11;;;;;;;7.85;4.93;;;12.80;99.90;;;;;;5079239;28;20027;-41
2022/10/26 03:29:37;;;;;;;8.00;4.68;;;12.80;99.90;;;;;;5080413;28;20024;-41
2022/10/26 03:32:03;;;;;;;5.00;4.10;;;12.80;99.90;;;;;;5077948;28;20051;-39
2022/10/26 03:34:28;;;;;;;7.35;4.40;;;12.80;99.90;;;;;;5083343;28;20020;-40
2022/10/26 03:36:54;;;;;;;8.55;5.00;;;12.90;99.90;;;;;;5074182;28;20024;-39
2022/10/26 03:39:19;;;;;;;5.60;4.40;;;12.80;99.90;;;;;;5083318;28;20869;-39
2022/10/26 03:41:45;;;;;;;7.38;5.00;;;12.80;99.90;;;;;;5073636;28;20071;-40
2022/10/26 03:44:10;;;;;;;5.97;4.00;;;12.90;99.90;;;;;;5084429;28;20028;-38
2022/10/26 03:46:36;;;;;;;7.22;4.82;;;12.90;99.90;;;;;;5072719;28;20774;-40
2022/10/26 03:49:01;;;;;;;6.75;4.78;;;12.90;99.90;;;;;;5085182;28;20032;-40
2022/10/26 03:51:27;;;;;;;7.20;5.13;;;12.90;99.90;;;;;;5070837;28;20029;-41
2022/10/26 03:53:52;;;;;;;5.95;4.78;;;12.80;99.90;;;;;;5083869;28;20039;-39
2022/10/26 03:56:18;;;;;;;8.80;5.18;;;12.80;99.90;;;;;;5071016;28;20032;-39
2022/10/26 03:58:43;;;;;;;9.90;5.35;;;12.80;99.90;;;;;;5082805;28;20044;-39
2022/10/26 04:01:09;;;;;;;9.43;4.70;;;12.80;99.90;;;;;;5075101;28;20017;-36
2022/10/26 04:03:34;;;;;;;9.20;4.78;;;12.80;99.90;;;;;;5080220;28;20123;-39
2022/10/26 04:06:01;;;;;;;7.22;5.10;;;12.70;99.90;;;;;;5070429;28;20074;-40
2022/10/26 04:08:27;;;;;;;7.63;4.82;;;12.70;99.90;;;;;;5070675;28;20621;-39
2022/10/26 04:10:52;;;;;;;7.00;4.40;;;12.70;99.90;;;;;;5067637;28;20066;-40
2022/10/26 04:13:18;;;;;;;8.07;4.82;;;12.70;99.90;;;;;;5073333;28;20671;-39
2022/10/26 04:15:43;;;;;;;8.18;5.13;;;12.70;99.90;;;;;;5065383;28;20021;-40
2022/10/26 04:18:11;;;;;;;7.32;4.85;;;12.70;99.90;;;;;;5074458;28;20025;-40
2022/10/26 04:20:40;;;;;;;7.45;5.13;;;12.60;99.90;;;;;;5065652;28;20044;-36
2022/10/26 04:23:08;;;;;;;5.88;4.30;;;12.60;99.90;;;;;;5075609;28;20316;-39
2022/10/26 04:25:34;;;;;;;6.30;4.50;;;12.60;99.90;;;;;;5064213;28;20081;-39
2022/10/26 04:28:00;;;;;;;8.13;4.95;;;12.60;99.90;;;;;;5076309;28;20024;-39
2022/10/26 04:30:26;;;;;;;5.45;4.72;;;12.50;99.90;;;;;;5063728;28;20056;-39
2022/10/26 04:32:51;;;;;;;6.35;4.00;;;12.50;99.90;;;;;;5075538;28;20155;-39
2022/10/26 04:35:17;;;;;;;8.10;5.13;;;12.50;99.90;;;;;;5062287;28;20028;-36
2022/10/26 04:37:43;;;;;;;8.13;4.55;;;12.50;99.90;;;;;;5075343;28;20036;-39
2022/10/26 04:40:08;;;;;;;10.02;4.97;;;12.50;99.90;;;;;;5062697;28;20082;-39
2022/10/26 04:42:42;;;;;;;7.78;4.60;;;12.60;99.90;;;;;;5072127;28;20093;-38
2022/10/26 04:45:08;;;;;;;6.32;4.45;;;12.60;99.90;;;;;;5065743;28;20032;-37
2022/10/26 04:47:34;;;;;;;6.35;4.43;;;12.60;99.90;;;;;;5070944;28;20657;-40
2022/10/26 04:49:59;;;;;;;6.82;4.15;;;12.60;99.90;;;;;;5068588;28;20021;-39
2022/10/26 04:52:28;;;;;;;6.22;4.30;;;12.60;99.90;;;;;;5067536;28;20039;-40
2022/10/26 04:54:53;;;;;;;7.80;5.03;;;12.50;99.90;;;;;;5070899;28;20025;-39
2022/10/26 04:57:19;;;;;;;10.10;4.80;;;12.50;99.90;;;;;;5065705;28;20078;-36
2022/10/26 04:59:44;;;;;;;6.57;4.82;;;12.50;99.90;;;;;;5073219;28;20487;-39
2022/10/26 05:02:10;;;;;;;7.80;4.45;;;12.50;99.90;;;;;;5064140;28;20115;-41
2022/10/26 05:04:35;;;;;;;6.95;4.28;;;12.50;99.90;;;;;;5080673;28;20552;-39
2022/10/26 05:07:01;;;;;;;6.78;4.50;;;12.50;99.90;;;;;;5081072;28;20111;-40
2022/10/26 05:09:26;;;;;;;5.72;4.18;;;12.50;99.90;;;;;;5071144;28;20056;-40
2022/10/26 05:11:52;;;;;;;5.88;4.53;;;12.60;99.90;;;;;;5083632;28;20034;-40
2022/10/26 05:14:17;;;;;;;7.07;4.85;;;12.60;99.90;;;;;;5069691;28;20039;-39
2022/10/26 05:16:43;;;;;;;7.32;4.32;;;12.60;99.90;;;;;;5083816;28;20035;-37
2022/10/26 05:19:09;;;;;;;5.88;4.55;;;12.60;99.90;;;;;;5070864;28;20229;-38
2022/10/26 05:21:34;;;;;;;9.05;4.50;;;12.60;99.90;;;;;;5082512;28;20028;-39
2022/10/26 05:24:00;;;;;;;6.88;4.55;;;12.70;99.90;;;;;;5073543;28;20467;-40
2022/10/26 05:26:26;;;;;;;9.05;4.75;;;12.70;99.90;;;;;;5080016;28;20433;-39
2022/10/26 05:28:51;;;;;;;6.45;4.75;;;12.70;99.90;;;;;;5075881;28;20052;-39
2022/10/26 05:31:18;;;;;;;8.15;4.55;;;12.80;99.90;;;;;;5076691;28;20710;-37
2022/10/26 05:33:43;;;;;;;7.82;4.38;;;12.80;99.90;;;;;;5078789;28;20126;-39
2022/10/26 05:36:09;;;;;;;6.03;4.25;;;12.80;99.90;;;;;;5073837;28;20032;-39
2022/10/26 05:38:34;;;;;;;6.57;4.75;;;12.80;99.90;;;;;;5074251;28;20135;-40
2022/10/26 05:41:00;;;;;;;6.50;4.45;;;12.80;99.90;;;;;;5081729;28;20425;-41
2022/10/26 05:43:29;;;;;;;6.63;4.32;;;12.80;99.90;;;;;;5078319;28;20031;-39
2022/10/26 05:45:55;;;;;;;6.45;4.20;;;12.90;99.90;;;;;;5075205;28;20614;-41
2022/10/26 05:48:22;;;;;;;6.20;4.68;;;12.90;99.90;;;;;;5065398;28;20529;-37
2022/10/26 05:50:47;;;;;;;6.90;4.40;;;12.90;99.90;;;;;;5078994;28;20008;-40
2022/10/26 05:53:13;;;;;;;7.20;4.18;;;12.90;99.90;;;;;;5065740;28;20386;-40
2022/10/26 05:55:39;;;;;;;6.70;4.63;;;12.90;99.90;;;;;;5078010;28;20028;-40
2022/10/26 05:58:12;;;;;;;5.93;4.65;;;12.90;99.90;;;;;;5066159;28;20040;-40
2022/10/26 06:01:00;;;;;;;6.38;4.15;;;12.90;99.90;;;;;;5078374;28;20409;-39
2022/10/26 06:04:06;;;;;;;9.25;4.90;;;12.90;99.90;;;;;;5064919;28;20025;-38
2022/10/26 06:06:38;;;;;;;7.88;4.65;;;12.90;99.90;;;;;;5077199;28;20021;-38
2022/10/26 06:09:04;;;;;;;6.13;4.57;;;12.90;99.90;;;;;;5065561;28;20059;-39
2022/10/26 06:11:30;;;;;;;7.88;4.63;;;12.90;99.90;;;;;;5075723;28;20016;-38
2022/10/26 06:13:59;;;;;;;4.93;4.22;;;12.90;99.90;;;;;;5065291;28;20082;-41
2022/10/26 06:16:35;;;;;;;5.90;4.40;;;12.90;99.90;;;;;;5076974;28;20024;-40
2022/10/26 06:19:31;;;;;;;9.05;4.25;;;12.90;99.90;;;;;;5065358;28;20036;-41
2022/10/26 06:22:34;;;;;;;6.57;4.38;;;12.90;99.90;;;;;;5077196;28;20028;-39
2022/10/26 06:25:29;;;;;;;6.00;4.10;;;12.90;99.90;;;;;;5065627;28;20558;-39
2022/10/26 06:28:18;;;;;;;5.55;4.03;;;12.90;99.90;;;;;;5077648;28;20024;-39
2022/10/26 06:30:43;;;;;;;6.88;4.70;;;12.80;99.90;;;;;;5079818;28;20020;-37
2022/10/26 06:33:11;;;;;;;5.63;4.18;;;12.80;99.90;;;;;;5071826;28;20048;-36
2022/10/26 06:35:39;;;;;;;7.10;4.50;;;12.80;99.90;;;;;;5070230;28;20028;-40
2022/10/26 06:38:15;;;;;;;6.07;4.15;;;12.70;99.90;;;;;;5075162;28;20393;-37
2022/10/26 06:40:44;;;;;;;6.13;4.90;;;12.70;99.90;;;;;;5084727;28;20024;-39
2022/10/26 06:43:22;;;;;;;6.57;4.15;;;12.70;99.90;;;;;;5075483;28;20081;-36
2022/10/26 06:45:53;;;;;;;5.70;4.03;;;12.70;99.90;;;;;;5083803;28;20027;-39
2022/10/26 06:48:24;;;;;;;6.95;4.40;;;12.80;99.90;;;;;;5075789;28;20535;-37
2022/10/26 06:50:52;;;;;;;6.63;3.90;;;12.80;99.90;;;;;;5084373;28;20414;-40
2022/10/26 06:53:38;;;;;;;6.43;3.95;;;12.80;99.90;;;;;;5073137;28;20104;-39
2022/10/26 06:56:04;;;;;;;6.40;3.70;;;12.90;99.90;;;;;;5084538;28;20047;-39
2022/10/26 06:58:35;;;;;;;6.72;4.05;;;12.90;99.90;;;;;;5073014;28;20039;-40
2022/10/26 07:01:03;;;;;;;6.15;3.80;;;12.90;99.90;;;;;;5072758;28;20360;-41
2022/10/26 07:03:29;;;;;;;5.18;3.38;;;12.90;99.90;;;;;;5077043;28;20048;-39
2022/10/26 07:05:54;;;;;;;5.10;3.70;;;12.90;99.90;;;;;;5080622;28;20020;-38
2022/10/26 07:08:20;;;;;;;5.63;3.63;;;13.00;99.90;;;;;;5079155;28;20024;-39
2022/10/26 07:10:46;;;;;;;9.30;3.63;;;13.00;99.90;;;;;;5085638;28;20024;-39
2022/10/26 07:13:11;;;;;;;7.50;3.78;;;13.00;99.90;;;;;;5081647;28;20073;-37
2022/10/26 07:15:38;;;;;;;3.97;3.45;;;13.00;99.90;;;;;;5082436;28;20020;-39
2022/10/26 07:18:05;;;;;;;8.63;3.80;;;13.00;99.90;;;;;;5080008;28;20479;-38
2022/10/26 07:20:35;;;;;;;6.85;3.67;;;13.00;99.90;;;;;;5081112;28;20097;-39
2022/10/26 07:23:00;;;;;;;7.18;3.90;;;13.00;99.90;;;;;;5075181;28;20382;-39
2022/10/26 07:25:26;;;;;;;7.15;3.50;;;13.00;99.90;;;;;;5081757;28;20451;-40
2022/10/26 07:27:57;;;;;;;5.03;3.22;;;13.10;99.90;;;;;;5077981;28;20020;-39
2022/10/26 07:30:23;;;;;;;7.70;3.40;;;13.10;99.90;;;;;;5079999;28;20028;-40
2022/10/26 07:32:48;;;;;;;4.68;3.28;;;13.20;99.90;;;;;;5080362;28;20037;-40
2022/10/26 07:35:14;;;;;;;5.05;3.45;;;13.20;99.90;;;;;;5075910;28;20024;-36
2022/10/26 07:37:39;;;;;;;6.82;3.35;;;13.30;99.90;;;;;;5080997;28;20098;-38
2022/10/26 07:40:06;;;;;;;4.78;3.30;;;13.30;99.90;;;;;;5079433;28;20518;-40
2022/10/26 07:42:31;;;;;;;4.80;3.22;;;13.40;99.90;;;;;;5082694;28;20016;-39
2022/10/26 07:44:57;;;;;;;4.80;2.90;;;13.40;99.90;;;;;;5079276;28;20665;-40
2022/10/26 07:47:22;;;;;;;6.68;2.90;;;13.40;99.90;;;;;;5083540;28;20041;-40
2022/10/26 07:49:48;;;;;;;4.35;2.65;;;13.50;99.90;;;;;;5076003;28;20107;-40
2022/10/26 07:52:13;;;;;;;3.58;2.47;;;13.60;99.90;;;;;;5083825;28;20111;-40
2022/10/26 07:54:39;;;;;;;3.83;2.92;;;13.60;99.90;;;;;;5078623;28;20055;-39
2022/10/26 07:57:04;;;;;;;5.30;2.78;;;13.70;99.90;;;;;;5064377;28;20107;-40
2022/10/26 07:59:30;;;;;;;5.78;2.70;;;13.80;99.90;;;;;;5075387;28;20124;-40
2022/10/26 08:01:55;;;;;;;3.30;2.60;;;13.80;99.90;;;;;;5064941;28;20036;-37
2022/10/26 08:04:21;;;;;;;4.32;2.53;;;13.80;99.90;;;;;;5070170;28;20028;-40
2022/10/26 08:06:47;;;;;;;3.95;2.67;;;13.80;99.90;;;;;;5064396;28;20463;-41
2022/10/26 08:09:13;;;;;;;4.70;2.63;;;13.90;99.90;;;;;;5068633;28;20467;-40
2022/10/26 08:11:38;;;;;;;3.53;2.25;;;13.90;99.90;;;;;;5070088;28;20101;-41
2022/10/26 08:14:04;;;;;;;3.75;2.20;;;13.90;99.90;;;;;;5070494;28;20032;-36
2022/10/26 08:16:30;;;;;;;3.13;2.30;;;14.00;99.90;;;;;;5075095;28;20028;-40
2022/10/26 08:18:56;;;;;;;4.35;2.53;;;14.00;99.90;;;;;;5082644;28;20395;-40
2022/10/26 08:21:24;;;;;;;3.78;2.58;;;14.00;99.90;;;;;;5072709;28;20463;-39
2022/10/26 08:23:49;;;;;;;2.40;2.03;;;14.10;99.90;;;;;;5082489;28;20085;-40
2022/10/26 08:26:19;;;;;;;3.75;2.15;;;14.10;99.90;;;;;;5072573;28;20024;-41
2022/10/26 08:28:48;;;;;;;3.47;2.20;;;14.20;99.90;;;;;;5083255;28;20032;-41
2022/10/26 08:31:14;;;;;;;2.33;2.00;;;14.20;99.90;;;;;;5069561;28;20528;-37
2022/10/26 08:33:39;;;;;;;3.17;2.08;;;14.20;99.90;;;;;;5084265;28;20039;-40
2022/10/26 08:36:05;;;;;;;4.00;2.20;;;14.30;99.90;;;;;;5070567;28;20571;-40
2022/10/26 08:38:32;;;;;;;3.78;1.98;;;14.40;99.90;;;;;;5083686;28;20047;-39
2022/10/26 08:41:04;;;;;;;2.03;1.75;;;14.50;99.90;;;;;;5071468;28;20395;-41
2022/10/26 08:43:55;;;;;;;4.45;1.83;;;14.50;99.90;;;;;;5063273;28;20024;-40
2022/10/26 08:46:26;;;;;;;2.40;1.50;;;14.50;99.90;;;;;;5059726;28;20369;-40
2022/10/26 08:48:54;;;;;;;2.20;1.65;;;14.60;99.90;;;;;;5083913;28;20036;-39
2022/10/26 08:51:34;;;;;;;4.75;1.90;;;14.60;99.90;;;;;;5069570;28;20848;-39
2022/10/26 08:54:32;;;;;;;6.03;1.67;;;14.60;99.90;;;;;;5084526;28;20032;-40
2022/10/26 08:57:01;;;;;;;3.00;1.80;;;14.60;99.90;;;;;;5067019;28;20485;-40
2022/10/26 08:59:37;;;;;;;3.40;1.42;;;14.70;99.90;;;;;;5081962;28;20127;-39
2022/10/26 09:02:02;;;;;;;1.45;1.33;;;14.80;99.90;;;;;;5070719;28;20024;-40
2022/10/26 09:04:30;;;;;;;1.30;1.20;;;14.80;99.90;;;;;;5082380;28;20069;-38
2022/10/26 09:07:07;;;;;;;2.92;1.45;;;14.90;99.90;;;;;;5070218;28;20939;-40
2022/10/26 09:09:47;;;;;;;1.52;1.20;;;15.00;99.90;;;;;;5083649;28;20132;-38
2022/10/26 09:12:50;;;;;;;2.05;1.30;;;15.20;99.90;;;;;;5069494;28;20060;-40
2022/10/26 09:15:23;;;;;;;;;;;15.40;99.90;;;;;;5083677;28;20032;-39
2022/10/26 09:18:13;;;;;;;5.07;1.65;;;15.60;99.90;;;;;;5074894;28;20022;-38
2022/10/26 09:21:11;;;;;;;2.05;1.40;;;15.80;99.90;;;;;;5063888;28;20021;-40
2022/10/26 09:23:46;;;;;;;3.20;1.70;;;15.90;99.90;;;;;;5073004;28;20107;-40
2022/10/26 09:26:40;;;;;;;4.45;1.42;;;16.00;99.90;;;;;;5080395;28;20020;-36
2022/10/26 09:29:11;;;;;;;2.15;1.80;;;15.90;99.90;;;;;;5075488;28;20051;-41
2022/10/26 09:31:44;;;;;;;1.92;1.55;;;16.00;99.90;;;;;;5080147;28;20036;-40
2022/10/26 09:34:41;;;;;;;3.10;2.63;;;16.00;99.90;;;;;;5073956;28;20561;-39
2022/10/26 09:37:17;;;;;;;3.88;1.90;;;16.10;99.90;;;;;;5040906;28;20036;-40
2022/10/26 09:39:51;;;;;;;3.67;2.20;;;16.10;99.90;;;;;;5077678;28;20440;-37
2022/10/26 09:42:24;;;;;;;2.05;1.60;;;16.10;99.90;;;;;;5076064;28;20524;-39
2022/10/26 09:44:58;;;;;;;2.35;1.75;;;16.10;99.90;;;;;;5078079;28;20031;-41
2022/10/26 09:47:37;;;;;;;3.38;1.95;;;16.10;99.90;;;;;;5075538;28;20035;-40
2022/10/26 09:50:20;;;;;;;3.33;1.77;;;16.20;99.90;;;;;;5077945;28;20082;-41
2022/10/26 09:52:45;;;;;;;;;;;16.30;99.90;;;;;;5076952;28;20037;-39
2022/10/26 09:55:12;;;;;;;4.78;2.63;;;16.30;99.90;;;;;;5076506;28;19908;-40
2022/10/26 09:57:44;;;;;;;4.25;2.38;;;16.40;99.90;;;;;;5078121;28;20060;-38
2022/10/26 10:00:17;;;;;;;4.82;2.17;;;16.50;99.90;;;;;;5075300;28;20077;-39
2022/10/26 10:02:47;;;;;;;3.22;2.20;;;16.60;99.90;;;;;;5077682;28;20541;-37
2022/10/26 10:05:23;;;;;;;2.97;1.92;;;16.70;99.90;;;;;;5065832;28;20731;-40
2022/10/26 10:07:49;;;;;;;2.90;1.70;;;16.80;99.90;;;;;;5066195;28;20028;-40
2022/10/26 10:10:20;;;;;;;2.10;1.67;;;16.90;99.90;;;;;;5070819;28;20028;-40
2022/10/26 10:12:49;;;;;;;3.35;2.17;;;16.90;99.90;;;;;;5064197;28;20036;-41
2022/10/26 10:15:21;;;;;;;2.85;2.20;;;17.00;99.90;;;;;;5073055;28;20127;-39
2022/10/26 10:17:51;;;;;;;3.08;1.75;;;17.10;99.90;;;;;;5063356;28;20143;-39
2022/10/26 10:20:23;;;;;;;2.70;1.83;;;17.10;99.90;;;;;;5074077;28;20070;-39
2022/10/26 10:23:00;;;;;;;3.37;1.80;;;17.20;99.90;;;;;;5063285;28;20074;-40
2022/10/26 10:25:37;;;;;;;4.20;2.35;;;17.30;99.90;;;;;;5073053;28;20653;-39
2022/10/26 10:28:21;;;;;;;2.40;1.83;;;17.30;99.90;;;;;;5064399;28;20023;-38
2022/10/26 10:30:56;;;;;;;1.67;1.58;;;17.40;99.90;;;;;;5071977;28;20589;-41
2022/10/26 10:33:21;;;;;;;3.00;2.10;;;17.40;99.90;;;;;;5083075;28;20040;-39
2022/10/26 10:35:50;;;;;;;3.72;1.95;;;17.40;99.90;;;;;;5075326;28;20028;-39
2022/10/26 10:38:19;;;;;;;2.90;1.92;;;17.40;99.90;;;;;;5083958;28;20126;-41
2022/10/26 10:40:56;;;;;;;2.70;1.88;;;17.40;99.90;;;;;;5074507;28;20058;-40
2022/10/26 10:43:23;;;;;;;2.58;1.95;;;17.50;99.90;;;;;;5084375;28;20077;-38
2022/10/26 10:45:51;;;;;;;4.07;1.80;;;17.50;99.90;;;;;;5074595;28;20028;-41
2022/10/26 10:48:25;;;;;;;5.68;2.33;;;17.50;99.90;;;;;;5085526;28;20073;-41
2022/10/26 10:51:11;;;;;;;2.30;2.05;;;17.50;99.90;;;;;;5073691;28;20020;-38
2022/10/26 10:53:48;;;;;;;3.45;2.03;;;17.60;99.90;;;;;;5085461;28;20107;-39
2022/10/26 10:56:21;;;;;;;3.45;2.35;;;17.70;99.90;;;;;;5076624;28;20567;-40
2022/10/26 10:59:09;;;;;;;3.03;2.10;;;17.70;99.90;;;;;;5066840;28;20036;-39
2022/10/26 11:01:43;;;;;;;4.05;1.75;;;17.80;99.90;;;;;;5064197;28;20176;-39
2022/10/26 11:04:24;;;;;;;2.65;2.10;;;17.80;99.90;;;;;;5084802;28;20024;-39
2022/10/26 11:06:52;;;;;;;4.43;2.00;;;17.80;99.90;;;;;;5075545;28;20024;-40
2022/10/26 11:09:23;;;;;;;3.20;2.00;;;17.90;99.90;;;;;;5084162;28;20032;-40
2022/10/26 11:11:48;;;;;;;4.80;2.08;;;17.90;99.90;;;;;;5074307;28;20027;-39
2022/10/26 11:14:36;;;;;;;3.65;2.20;;;18.00;99.90;;;;;;5084836;28;20032;-40
2022/10/26 11:17:20;;;;;;;3.78;1.90;;;18.00;99.90;;;;;;5076862;28;20016;-38
2022/10/26 11:19:59;;;;;;;2.97;1.98;;;18.10;99.90;;;;;;5066074;28;20043;-39
2022/10/26 11:22:35;;;;;;;2.75;1.88;;;18.20;99.90;;;;;;5074442;28;20024;-41
2022/10/26 11:25:36;;;;;;;2.70;1.70;;;18.20;99.90;;;;;;5084260;28;20035;-40
2022/10/26 11:28:19;;;;;;;3.45;2.17;;;18.30;99.90;;;;;;5060193;28;20036;-40
2022/10/26 11:31:11;;;;;;;2.40;1.90;;;18.30;99.90;;;;;;5080989;28;20040;-39
2022/10/26 11:33:47;;;;;;;3.85;2.00;;;18.40;99.90;;;;;;5080630;28;20566;-40
2022/10/26 11:36:17;;;;;;;3.50;2.10;;;18.40;99.90;;;;;;5077280;28;20031;-39
2022/10/26 11:39:00;;;;;;;2.25;1.60;;;18.40;99.90;;;;;;5080688;28;20035;-41
2022/10/26 11:41:32;;;;;;;4.18;2.05;;;18.50;99.90;;;;;;5076789;28;20060;-41
2022/10/26 11:44:12;;;;;;;3.08;1.75;;;18.60;99.90;;;;;;5080658;28;20562;-40
2022/10/26 11:46:52;;;;;;;3.88;1.85;;;18.60;99.90;;;;;;5076724;28;20471;-40
2022/10/26 11:49:28;;;;;;;5.15;1.85;;;18.60;99.90;;;;;;5081813;28;20039;-41
2022/10/26 11:52:24;;;;;;;3.28;2.00;;;18.70;99.90;;;;;;5075735;28;20523;-40
2022/10/26 11:54:59;;;;;;;4.18;1.48;;;18.80;99.90;;;;;;5064736;28;20040;-40
2022/10/26 11:57:27;;;;;;;2.55;1.90;;;18.80;99.90;;;;;;5076351;28;20059;-41
2022/10/26 12:00:15;;;;;;;2.65;1.42;;;18.80;99.90;;;;;;5065339;28;21091;-38
2022/10/26 12:02:42;;;;;;;2.33;1.35;;;18.80;99.90;;;;;;5076055;28;20532;-39
2022/10/26 12:05:31;;;;;;;2.92;1.55;;;18.80;99.90;;;;;;5071062;28;20032;-40
2022/10/26 12:08:02;;;;;;;3.13;1.85;;;18.80;99.90;;;;;;5072140;28;20174;-36
2022/10/26 12:10:31;;;;;;;4.68;2.03;;;18.80;99.90;;;;;;5085366;28;20051;-40
2022/10/26 12:13:00;;;;;;;2.58;1.50;;;18.90;99.90;;;;;;5072752;28;20105;-40
2022/10/26 12:15:43;;;;;;;5.75;1.70;;;18.90;99.90;;;;;;5083077;28;20039;-38
2022/10/26 12:18:29;;;;;;;6.90;1.83;;;18.90;99.90;;;;;;5071789;28;20125;-41
2022/10/26 12:21:01;;;;;;;2.55;1.70;;;18.80;99.90;;;;;;5064614;28;20024;-40
2022/10/26 12:23:28;;;;;;;2.50;1.30;;;18.70;99.90;;;;;;5075530;28;20044;-40
2022/10/26 12:26:22;;;;;;;2.50;1.60;;;18.70;99.90;;;;;;5064362;28;20190;-39
2022/10/26 12:29:01;;;;;;;3.95;1.80;;;18.70;99.90;;;;;;5075960;28;20103;-39
2022/10/26 12:31:35;;;;;;;4.47;1.90;;;18.60;99.90;;;;;;5063163;28;20052;-40
2022/10/26 12:34:02;;;;;;;2.92;1.80;;;18.60;99.90;;;;;;5076365;28;20035;-40
2022/10/26 12:36:46;;;;;;;4.72;1.50;;;18.60;99.90;;;;;;5062645;28;20029;-39
2022/10/26 12:39:32;;;;;;;2.42;1.58;;;18.60;99.90;;;;;;5075362;28;20036;-40
2022/10/26 12:42:08;;;;;;;1.88;1.45;;;18.60;99.90;;;;;;5064334;28;20024;-39
2022/10/26 12:45:06;;;;;;;3.58;1.60;;;18.70;99.90;;;;;;5071143;28;20024;-40
2022/10/26 12:47:34;;;;;;;3.00;1.83;;;18.70;99.90;;;;;;5082239;28;20040;-41
2022/10/26 12:50:00;;;;;;;3.35;2.22;;;18.70;99.90;;;;;;5072292;28;20039;-41
2022/10/26 12:52:58;;;;;;;2.53;1.52;;;18.70;99.90;;;;;;5082262;28;20064;-40
2022/10/26 12:55:58;;;;;;;2.83;1.65;;;18.70;99.90;;;;;;5074244;28;20290;-36
2022/10/26 12:58:59;;;;;;;3.35;1.73;;;18.80;99.90;;;;;;5065018;28;20032;-39
2022/10/26 13:01:24;;;;;;;2.20;1.80;;;18.80;99.90;;;;;;5068458;28;20028;-39
2022/10/26 13:04:05;;;;;;;3.72;2.00;;;18.90;99.90;;;;;;5067963;28;20035;-40
2022/10/26 13:06:52;;;;;;;2.85;2.03;;;18.90;99.90;;;;;;5080135;28;20550;-41
2022/10/26 13:09:27;;;;;;;2.38;2.10;;;19.00;99.90;;;;;;5075575;28;20487;-38
2022/10/26 13:11:56;;;;;;;2.55;1.95;;;19.00;99.90;;;;;;5078673;28;20115;-40